createdAt,value
2022-08-20T00:02:20.049Z,3.65
2022-08-20T00:04:48.925Z,4.53
2022-08-20T00:07:17.800Z,4.38
2022-08-20T00:09:46.689Z,4.50
2022-08-20T00:12:17.733Z,4.40
2022-08-20T00:14:46.671Z,4.43
2022-08-20T00:17:16.893Z,4.15
2022-08-20T00:19:46.519Z,4.70
2022-08-20T00:22:15.283Z,4.50
2022-08-20T00:24:44.239Z,4.82
2022-08-20T00:27:13.125Z,4.60
2022-08-20T00:29:42.961Z,4.68
2022-08-20T00:32:11.699Z,4.40
2022-08-20T00:34:42.557Z,4.93
2022-08-20T00:37:11.392Z,4.97
2022-08-20T00:39:40.481Z,5.15
2022-08-20T00:42:09.801Z,4.75
2022-08-20T00:44:44.912Z,5.15
2022-08-20T00:47:13.775Z,4.75
2022-08-20T00:49:45.641Z,4.68
2022-08-20T00:52:18.748Z,5.25
2022-08-20T00:54:51.097Z,4.90
2022-08-20T00:57:24.046Z,5.00
2022-08-20T00:59:53.661Z,5.07
2022-08-20T01:02:25.467Z,5.45
2022-08-20T01:04:56.848Z,5.45
2022-08-20T01:07:32.580Z,5.50
2022-08-20T01:10:02.086Z,4.90
2022-08-20T01:12:32.486Z,5.47
2022-08-20T01:15:03.908Z,5.30
2022-08-20T01:17:37.027Z,5.45
2022-08-20T01:20:12.983Z,5.13
2022-08-20T01:23:03.150Z,5.47
2022-08-20T01:25:42.331Z,5.00
2022-08-20T01:28:12.579Z,5.53
2022-08-20T01:30:41.917Z,5.70
2022-08-20T01:33:11.376Z,5.18
2022-08-20T01:35:42.725Z,4.93
2022-08-20T01:38:12.852Z,4.75
2022-08-20T01:41:19.273Z,4.70
2022-08-20T01:43:58.569Z,4.78
2022-08-20T01:46:31.030Z,4.85
2022-08-20T01:49:01.490Z,4.97
2022-08-20T01:51:31.704Z,4.32
2022-08-20T01:54:00.838Z,4.75
2022-08-20T01:56:32.991Z,4.70
2022-08-20T01:59:05.426Z,4.35
2022-08-20T02:01:46.368Z,4.67
2022-08-20T02:04:18.213Z,4.00
2022-08-20T02:06:56.476Z,4.32
2022-08-20T02:09:27.764Z,4.35
2022-08-20T02:11:58.921Z,4.05
2022-08-20T02:14:28.502Z,4.15
2022-08-20T02:16:58.680Z,4.80
2022-08-20T02:19:32.844Z,4.53
2022-08-20T02:22:06.477Z,4.60
2022-08-20T02:24:35.566Z,4.85
2022-08-20T02:27:05.893Z,4.30
2022-08-20T02:29:35.032Z,4.35
2022-08-20T02:32:24.984Z,4.65
2022-08-20T02:34:52.663Z,4.55
2022-08-20T02:37:21.508Z,4.53
2022-08-20T02:39:50.250Z,4.25
2022-08-20T02:42:20.702Z,4.20
2022-08-20T02:44:49.478Z,4.55
2022-08-20T02:47:18.282Z,4.00
2022-08-20T02:49:47.038Z,4.10
2022-08-20T02:52:15.802Z,4.25
2022-08-20T02:54:44.746Z,4.15
2022-08-20T02:57:14.895Z,4.57
2022-08-20T02:59:45.656Z,3.90
2022-08-20T03:02:14.910Z,4.32
2022-08-20T03:04:43.973Z,4.13
2022-08-20T03:07:13.194Z,4.45
2022-08-20T03:09:42.249Z,3.60
2022-08-20T03:12:11.083Z,4.30
2022-08-20T03:14:39.971Z,4.10
2022-08-20T03:17:10.190Z,3.65
2022-08-20T03:19:38.948Z,4.38
2022-08-20T03:22:07.630Z,3.83
2022-08-20T03:24:36.453Z,4.10
2022-08-20T03:27:05.673Z,4.60
2022-08-20T03:29:36.034Z,5.03
2022-08-20T03:32:07.779Z,5.18
2022-08-20T03:34:38.013Z,4.22
2022-08-20T03:37:06.884Z,4.63
2022-08-20T03:39:35.685Z,4.45
2022-08-20T03:42:04.881Z,4.93
2022-08-20T03:44:34.249Z,4.45
2022-08-20T03:47:07.633Z,4.85
2022-08-20T03:49:37.735Z,4.25
2022-08-20T03:52:08.235Z,4.32
2022-08-20T03:54:37.074Z,4.25
2022-08-20T03:57:12.461Z,4.30
2022-08-20T03:59:42.573Z,4.25
2022-08-20T04:02:11.691Z,4.55
2022-08-20T04:04:43.693Z,4.28
2022-08-20T04:07:14.243Z,4.60
2022-08-20T04:09:43.736Z,4.30
2022-08-20T04:12:13.742Z,4.32
2022-08-20T04:14:42.369Z,4.40
2022-08-20T04:17:14.230Z,4.30
2022-08-20T04:19:46.063Z,4.25
2022-08-20T04:22:15.533Z,4.75
2022-08-20T04:24:45.527Z,4.70
2022-08-20T04:27:15.005Z,4.43
2022-08-20T04:29:44.784Z,4.72
2022-08-20T04:32:14.090Z,4.72
2022-08-20T04:34:48.096Z,4.60
2022-08-20T04:37:21.199Z,4.57
2022-08-20T04:40:10.216Z,5.00
2022-08-20T04:42:40.120Z,4.60
2022-08-20T04:47:41.783Z,4.40
2022-08-20T04:50:13.848Z,4.80
2022-08-20T04:52:42.725Z,4.82
2022-08-20T04:55:11.746Z,4.78
2022-08-20T04:57:41.220Z,5.05
2022-08-20T05:00:14.298Z,4.82
2022-08-20T05:02:43.623Z,6.60
2022-08-20T05:05:14.840Z,4.90
2022-08-20T05:07:46.928Z,5.80
2022-08-20T05:10:18.679Z,5.00
2022-08-20T05:12:55.634Z,5.07
2022-08-20T05:15:29.451Z,4.63
2022-08-20T05:18:02.618Z,5.00
2022-08-20T05:20:34.948Z,4.75
2022-08-20T05:23:04.351Z,5.33
2022-08-20T05:25:33.368Z,4.82
2022-08-20T05:28:09.435Z,4.68
2022-08-20T05:30:38.999Z,23.02
2022-08-20T05:33:10.463Z,17.42
2022-08-20T05:35:42.136Z,10.68
2022-08-20T05:38:14.973Z,4.45
2022-08-20T05:40:44.161Z,4.43
2022-08-20T05:43:14.038Z,5.38
2022-08-20T05:45:44.127Z,5.30
2022-08-20T05:48:16.154Z,4.13
2022-08-20T05:50:52.258Z,4.70
2022-08-20T05:53:22.274Z,4.85
2022-08-20T05:55:52.287Z,4.53
2022-08-20T05:58:25.832Z,4.35
2022-08-20T06:00:56.865Z,4.10
2022-08-20T06:03:43.889Z,4.38
2022-08-20T06:06:18.254Z,4.63
2022-08-20T06:09:02.835Z,4.13
2022-08-20T06:11:36.442Z,3.75
2022-08-20T06:14:06.682Z,3.78
2022-08-20T06:16:37.181Z,4.18
2022-08-20T06:19:11.273Z,4.05
2022-08-20T06:21:42.311Z,3.60
2022-08-20T06:24:11.420Z,3.50
2022-08-20T06:26:40.841Z,4.00
2022-08-20T06:29:09.747Z,4.20
2022-08-20T06:31:40.039Z,3.95
2022-08-20T06:34:08.873Z,4.00
2022-08-20T06:36:38.850Z,3.40
2022-08-20T06:39:09.035Z,3.90
2022-08-20T06:41:37.711Z,3.60
2022-08-20T06:44:07.915Z,3.65
2022-08-20T06:46:37.441Z,3.38
2022-08-20T06:49:09.262Z,3.60
2022-08-20T06:51:38.595Z,3.50
2022-08-20T06:54:14.173Z,3.30
2022-08-20T06:56:44.210Z,2.60
2022-08-20T06:59:13.037Z,3.10
2022-08-20T07:01:44.009Z,3.53
2022-08-20T07:04:13.007Z,3.40
2022-08-20T07:06:41.827Z,3.17
2022-08-20T07:09:12.140Z,3.10
2022-08-20T07:11:41.465Z,3.10
2022-08-20T07:14:10.181Z,3.05
2022-08-20T07:16:39.068Z,3.17
2022-08-20T07:19:08.464Z,3.03
2022-08-20T07:21:38.054Z,3.55
2022-08-20T07:24:07.527Z,4.05
2022-08-20T07:26:37.637Z,12.38
2022-08-20T07:29:06.391Z,2.80
2022-08-20T07:31:52.531Z,3.03
2022-08-20T07:34:21.908Z,2.50
2022-08-20T07:36:50.957Z,2.53
2022-08-20T07:39:20.427Z,3.25
2022-08-20T07:42:03.239Z,2.47
2022-08-20T07:44:32.164Z,3.65
2022-08-20T07:47:01.027Z,1.80
2022-08-20T07:49:30.076Z,2.30
2022-08-20T07:51:59.338Z,1.98
2022-08-20T07:54:30.545Z,2.50
2022-08-20T07:57:03.752Z,15.50
2022-08-20T07:59:32.966Z,3.90
2022-08-20T08:02:01.900Z,2.20
2022-08-20T08:04:32.738Z,2.22
2022-08-20T08:07:03.535Z,3.10
2022-08-20T08:09:35.270Z,2.40
2022-08-20T08:12:05.729Z,2.17
2022-08-20T08:14:36.005Z,3.15
2022-08-20T08:17:07.354Z,2.25
2022-08-20T08:19:40.591Z,2.08
2022-08-20T08:22:12.747Z,2.38
2022-08-20T08:24:57.117Z,2.13
2022-08-20T08:27:29.365Z,2.20
2022-08-20T08:29:58.464Z,2.15
2022-08-20T08:32:28.297Z,2.50
2022-08-20T08:34:57.106Z,2.20
2022-08-20T08:37:30.097Z,2.42
2022-08-20T08:40:00.435Z,1.80
2022-08-20T08:42:43.432Z,2.08
2022-08-20T08:45:16.142Z,1.90
2022-08-20T08:47:46.036Z,2.28
2022-08-20T08:50:43.767Z,1.83
2022-08-20T08:53:20.409Z,1.80
2022-08-20T08:55:49.806Z,1.98
2022-08-20T08:58:20.277Z,2.03
2022-08-20T09:00:57.655Z,2.00
2022-08-20T09:03:34.447Z,2.50
2022-08-20T09:06:03.681Z,1.70
2022-08-20T09:08:37.307Z,1.70
2022-08-20T09:11:09.110Z,2.47
2022-08-20T09:13:39.295Z,5.40
2022-08-20T09:16:10.743Z,1.77
2022-08-20T09:18:40.615Z,1.88
2022-08-20T09:21:10.818Z,1.67
2022-08-20T09:23:39.878Z,1.75
2022-08-20T09:26:08.904Z,1.60
2022-08-20T09:28:39.291Z,1.85
2022-08-20T09:31:08.142Z,1.70
2022-08-20T09:33:37.016Z,1.50
2022-08-20T09:36:29.254Z,1.70
2022-08-20T09:38:54.841Z,1.48
2022-08-20T09:41:23.730Z,1.58
2022-08-20T09:43:54.597Z,1.58
2022-08-20T09:46:27.185Z,1.70
2022-08-20T09:48:56.699Z,2.10
2022-08-20T09:51:25.805Z,6.75
2022-08-20T09:53:54.618Z,1.77
2022-08-20T09:56:25.602Z,1.80
2022-08-20T09:58:59.923Z,1.77
2022-08-20T10:01:33.302Z,1.90
2022-08-20T10:04:02.198Z,1.80
2022-08-20T10:06:35.798Z,1.80
2022-08-20T10:09:06.623Z,1.80
2022-08-20T10:11:35.297Z,1.80
2022-08-20T10:14:05.672Z,1.77
2022-08-20T10:16:34.385Z,1.73
2022-08-20T10:19:03.927Z,1.70
2022-08-20T10:21:38.445Z,1.77
2022-08-20T10:24:07.893Z,2.10
2022-08-20T10:26:39.073Z,1.70
2022-08-20T10:29:09.259Z,1.90
2022-08-20T10:31:38.039Z,1.60
2022-08-20T10:34:06.938Z,2.00
2022-08-20T10:36:35.757Z,1.85
2022-08-20T10:39:05.259Z,3.50
2022-08-20T10:41:38.346Z,1.70
2022-08-20T10:44:09.636Z,1.75
2022-08-20T10:46:38.519Z,1.65
2022-08-20T10:49:07.254Z,2.00
2022-08-20T10:51:36.052Z,1.98
2022-08-20T10:54:05.424Z,6.00
2022-08-20T10:56:41.705Z,2.05
2022-08-20T10:59:11.851Z,1.70
2022-08-20T11:01:40.924Z,1.90
2022-08-20T11:04:09.797Z,2.25
2022-08-20T11:06:38.453Z,2.20
2022-08-20T11:09:07.342Z,2.92
2022-08-20T11:11:38.832Z,2.67
2022-08-20T11:14:07.655Z,2.60
2022-08-20T11:16:37.805Z,2.50
2022-08-20T11:19:06.682Z,2.92
2022-08-20T11:21:35.698Z,2.58
2022-08-20T11:24:05.177Z,2.20
2022-08-20T11:26:34.064Z,2.60
2022-08-20T11:29:02.806Z,2.72
2022-08-20T11:31:31.488Z,2.65
2022-08-20T11:34:01.686Z,2.83
2022-08-20T11:36:30.450Z,2.60
2022-08-20T11:38:59.248Z,2.67
2022-08-20T11:41:28.044Z,2.42
2022-08-20T11:44:19.922Z,2.47
2022-08-20T11:46:45.679Z,3.10
2022-08-20T11:49:15.744Z,2.40
2022-08-20T11:51:49.449Z,2.35
2022-08-20T11:54:18.950Z,2.38
2022-08-20T11:56:48.456Z,2.58
2022-08-20T11:59:18.532Z,2.78
2022-08-20T12:02:03.339Z,2.35
2022-08-20T12:04:35.354Z,2.50
2022-08-20T12:07:11.887Z,2.50
2022-08-20T12:09:41.933Z,2.03
2022-08-20T12:12:22.405Z,2.45
2022-08-20T12:14:52.070Z,3.08
2022-08-20T12:17:24.066Z,2.47
2022-08-20T12:19:56.754Z,2.55
2022-08-20T12:22:26.319Z,2.42
2022-08-20T12:24:55.633Z,2.97
2022-08-20T12:27:27.442Z,2.40
2022-08-20T12:29:58.151Z,3.30
2022-08-20T12:32:28.732Z,2.53
2022-08-20T12:34:59.445Z,2.40
2022-08-20T12:37:31.242Z,2.63
2022-08-20T12:40:02.169Z,2.67
2022-08-20T12:42:31.530Z,3.03
2022-08-20T12:45:00.902Z,2.65
2022-08-20T12:47:33.071Z,2.53
2022-08-20T12:50:05.373Z,3.13
2022-08-20T12:52:35.134Z,2.40
2022-08-20T12:55:05.482Z,4.40
2022-08-20T12:57:36.571Z,2.63
2022-08-20T13:00:10.603Z,2.60
2022-08-20T13:02:41.306Z,2.60
2022-08-20T13:05:14.148Z,2.88
2022-08-20T13:10:16.573Z,2.28
2022-08-20T13:12:45.322Z,2.38
2022-08-20T13:15:14.855Z,2.38
2022-08-20T13:17:43.820Z,3.05
2022-08-20T13:20:16.007Z,2.40
2022-08-20T13:22:45.149Z,2.40
2022-08-20T13:25:14.673Z,2.30
2022-08-20T13:27:45.132Z,2.63
2022-08-20T13:30:18.411Z,2.45
2022-08-20T13:32:47.751Z,3.47
2022-08-20T13:35:19.459Z,2.63
2022-08-20T13:37:49.982Z,2.70
2022-08-20T13:40:19.561Z,21.05
2022-08-20T13:42:48.381Z,3.47
2022-08-20T13:45:17.225Z,2.38
2022-08-20T13:47:46.117Z,2.85
2022-08-20T13:50:19.823Z,2.38
2022-08-20T13:52:49.160Z,2.53
2022-08-20T13:55:20.615Z,4.22
2022-08-20T13:57:50.368Z,2.70
2022-08-20T14:00:26.365Z,2.40
2022-08-20T14:03:01.297Z,2.33
2022-08-20T14:05:32.483Z,2.42
2022-08-20T14:08:08.495Z,3.90
2022-08-20T14:10:37.704Z,2.88
2022-08-20T14:13:08.899Z,2.28
2022-08-20T14:15:39.614Z,2.45
2022-08-20T14:18:08.578Z,2.28
2022-08-20T14:20:38.949Z,2.60
2022-08-20T14:23:07.791Z,3.00
2022-08-20T14:25:36.897Z,2.70
2022-08-20T14:28:13.093Z,2.80
2022-08-20T14:30:42.646Z,2.50
2022-08-20T14:33:11.589Z,2.53
2022-08-20T14:35:42.140Z,3.35
2022-08-20T14:38:11.184Z,3.20
2022-08-20T14:40:40.157Z,3.65
2022-08-20T14:43:09.156Z,3.00
2022-08-20T14:45:38.380Z,3.10
2022-08-20T14:48:08.836Z,2.40
2022-08-20T14:50:38.488Z,2.55
2022-08-20T14:53:09.016Z,2.55
2022-08-20T14:55:38.765Z,2.90
2022-08-20T14:58:08.778Z,3.00
2022-08-20T15:00:37.944Z,3.45
2022-08-20T15:03:06.869Z,4.45
2022-08-20T15:05:39.540Z,3.17
2022-08-20T15:08:11.002Z,3.55
2022-08-20T15:10:40.934Z,3.42
2022-08-20T15:13:09.973Z,3.28
2022-08-20T15:15:39.564Z,3.50
2022-08-20T15:18:09.088Z,3.40
2022-08-20T15:20:38.511Z,3.20
2022-08-20T15:23:07.851Z,2.90
2022-08-20T15:25:38.509Z,5.65
2022-08-20T15:28:10.402Z,3.03
2022-08-20T15:30:42.668Z,3.25
2022-08-20T15:33:12.235Z,2.90
2022-08-20T15:35:41.183Z,3.40
2022-08-20T15:38:09.878Z,3.80
2022-08-20T15:40:40.351Z,3.92
2022-08-20T15:43:09.235Z,4.82
2022-08-20T15:45:38.121Z,7.35
2022-08-20T15:48:14.323Z,9.25
2022-08-20T15:51:01.831Z,10.18
2022-08-20T15:53:35.803Z,10.73
2022-08-20T15:56:25.239Z,11.30
2022-08-20T15:59:01.933Z,11.75
2022-08-20T16:01:38.514Z,12.90
2022-08-20T16:04:24.803Z,12.75
2022-08-20T16:06:58.203Z,12.80
2022-08-20T16:09:43.628Z,12.85
2022-08-20T16:12:21.344Z,13.93
2022-08-20T16:15:03.236Z,13.18
2022-08-20T16:17:36.057Z,13.25
2022-08-20T16:20:11.661Z,14.30
2022-08-20T16:22:44.426Z,14.55
2022-08-20T16:25:14.773Z,14.52
2022-08-20T16:27:52.497Z,14.15
2022-08-20T16:30:31.428Z,13.60
2022-08-20T16:33:05.074Z,14.18
2022-08-20T16:35:37.049Z,14.88
2022-08-20T16:38:21.091Z,15.02
2022-08-20T16:40:56.649Z,13.02
2022-08-20T16:43:33.629Z,13.00
2022-08-20T16:46:04.975Z,13.77
2022-08-20T16:48:38.306Z,14.20
2022-08-20T16:51:13.010Z,12.65
2022-08-20T16:53:42.027Z,12.65
2022-08-20T16:56:10.895Z,12.77
2022-08-20T16:58:45.193Z,13.18
2022-08-20T17:01:16.255Z,12.32
2022-08-20T17:03:50.913Z,12.68
2022-08-20T17:06:28.012Z,12.90
2022-08-20T17:08:56.975Z,12.00
2022-08-20T17:11:32.082Z,12.23
2022-08-20T17:14:12.748Z,10.65
2022-08-20T17:16:46.801Z,12.82
2022-08-20T17:19:27.131Z,10.73
2022-08-20T17:21:56.356Z,10.52
2022-08-20T17:24:29.348Z,10.82
2022-08-20T17:27:00.748Z,9.93
2022-08-20T17:29:32.981Z,10.15
2022-08-20T17:32:10.862Z,10.63
2022-08-20T17:34:46.178Z,10.27
2022-08-20T17:37:23.342Z,9.77
2022-08-20T17:40:09.906Z,10.27
2022-08-20T17:42:49.084Z,10.25
2022-08-20T17:45:25.486Z,11.07
2022-08-20T17:47:58.603Z,12.88
2022-08-20T17:53:07.217Z,9.50
2022-08-20T17:55:37.860Z,10.55
2022-08-20T17:58:13.422Z,9.95
2022-08-20T18:00:45.070Z,10.90
2022-08-20T18:03:23.423Z,10.30
2022-08-20T18:05:58.474Z,10.93
2022-08-20T18:08:36.667Z,10.43
2022-08-20T18:11:15.137Z,9.50
2022-08-20T18:14:10.598Z,10.85
2022-08-20T18:16:55.455Z,9.70
2022-08-20T18:19:53.062Z,10.52
2022-08-20T18:22:25.909Z,10.32
2022-08-20T18:25:02.791Z,10.20
2022-08-20T18:27:41.300Z,9.52
2022-08-20T18:30:18.841Z,10.73
2022-08-20T18:32:52.118Z,11.00
2022-08-20T18:35:25.226Z,9.70
2022-08-20T18:40:33.485Z,10.60
2022-08-20T18:43:14.004Z,10.75
2022-08-20T18:45:43.426Z,11.32
2022-08-20T18:48:22.551Z,10.63
2022-08-20T18:50:55.233Z,10.25
2022-08-20T18:53:33.921Z,10.60
2022-08-20T18:56:06.892Z,10.48
2022-08-20T18:58:55.029Z,11.48
2022-08-20T19:01:24.201Z,18.35
2022-08-20T19:03:58.213Z,10.52
2022-08-20T19:06:40.754Z,9.80
2022-08-20T19:09:16.095Z,10.38
2022-08-20T19:12:05.981Z,9.75
2022-08-20T19:14:51.068Z,10.13
2022-08-20T19:17:29.793Z,9.88
2022-08-20T19:20:09.237Z,9.55
2022-08-20T19:22:41.166Z,10.00
2022-08-20T19:25:21.261Z,10.90
2022-08-20T19:27:50.265Z,10.07
2022-08-20T19:30:33.348Z,9.68
2022-08-20T19:33:03.172Z,10.90
2022-08-20T19:35:34.095Z,11.00
2022-08-20T19:38:03.486Z,10.02
2022-08-20T19:40:39.143Z,10.52
2022-08-20T19:43:16.148Z,9.82
2022-08-20T19:45:48.399Z,10.20
2022-08-20T19:48:37.295Z,11.32
2022-08-20T19:51:15.584Z,11.57
2022-08-20T19:53:47.814Z,9.25
2022-08-20T19:56:19.722Z,9.73
2022-08-20T19:59:01.498Z,9.40
2022-08-20T20:01:30.760Z,10.38
2022-08-20T20:04:03.479Z,8.85
2022-08-20T20:06:38.149Z,11.98
2022-08-20T20:09:14.727Z,8.88
2022-08-20T20:11:47.608Z,10.45
2022-08-20T20:14:18.767Z,9.38
2022-08-20T20:16:51.223Z,9.82
2022-08-20T20:19:26.670Z,9.17
2022-08-20T20:22:20.257Z,8.52
2022-08-20T20:25:00.006Z,9.23
2022-08-20T20:27:29.275Z,10.02
2022-08-20T20:30:02.824Z,9.05
2022-08-20T20:32:33.948Z,8.88
2022-08-20T20:35:06.979Z,9.13
2022-08-20T20:37:50.000Z,8.95
2022-08-20T20:40:26.618Z,9.35
2022-08-20T20:43:02.733Z,9.10
2022-08-20T20:45:35.778Z,10.60
2022-08-20T20:48:18.342Z,29.15
2022-08-20T20:50:49.246Z,14.00
2022-08-20T20:53:50.890Z,9.88
2022-08-20T20:56:31.648Z,10.35
2022-08-20T20:59:05.515Z,10.82
2022-08-20T21:01:49.364Z,10.32
2022-08-20T21:04:20.328Z,8.93
2022-08-20T21:06:49.578Z,9.15
2022-08-20T21:09:21.276Z,10.02
2022-08-20T21:11:50.853Z,9.27
2022-08-20T21:14:19.986Z,9.23
2022-08-20T21:16:49.161Z,9.20
2022-08-20T21:19:19.055Z,9.70
2022-08-20T21:21:48.059Z,9.73
2022-08-20T21:24:18.299Z,11.20
2022-08-20T21:26:49.567Z,9.73
2022-08-20T21:29:26.432Z,10.45
2022-08-20T21:31:59.158Z,10.15
2022-08-20T21:34:28.193Z,8.93
2022-08-20T21:36:58.016Z,9.75
2022-08-20T21:39:28.234Z,10.10
2022-08-20T21:42:02.671Z,9.50
2022-08-20T21:44:33.511Z,9.23
2022-08-20T21:47:02.936Z,9.23
2022-08-20T21:49:33.059Z,10.27
2022-08-20T21:52:02.012Z,10.15
2022-08-20T21:54:31.032Z,9.02
2022-08-20T21:57:06.081Z,9.57
2022-08-20T21:59:37.821Z,9.10
2022-08-20T22:02:08.792Z,9.77
2022-08-20T22:04:38.248Z,9.75
2022-08-20T22:07:07.142Z,9.27
2022-08-20T22:09:36.325Z,8.63
2022-08-20T22:12:08.377Z,9.65
2022-08-20T22:14:37.075Z,9.20
2022-08-20T22:17:06.175Z,8.68
2022-08-20T22:19:35.172Z,9.10
2022-08-20T22:22:04.804Z,9.68
2022-08-20T22:24:33.775Z,9.32
2022-08-20T22:27:03.021Z,9.00
2022-08-20T22:29:33.545Z,9.43
2022-08-20T22:32:02.423Z,8.60
2022-08-20T22:34:33.835Z,9.50
2022-08-20T22:37:03.967Z,9.30
2022-08-20T22:39:33.232Z,8.23
2022-08-20T22:42:02.003Z,9.60
2022-08-20T22:44:30.678Z,8.93
2022-08-20T22:47:05.739Z,8.32
2022-08-20T22:49:36.909Z,8.88
2022-08-20T22:52:06.182Z,11.13
2022-08-20T22:54:37.014Z,7.88
2022-08-20T22:57:05.992Z,8.98
2022-08-20T22:59:45.907Z,8.65
2022-08-20T23:02:25.119Z,7.65
2022-08-20T23:04:53.876Z,8.70
2022-08-20T23:07:23.115Z,7.68
2022-08-20T23:09:54.618Z,9.02
2022-08-20T23:12:23.426Z,9.15
2022-08-20T23:14:52.803Z,8.45
2022-08-20T23:17:23.400Z,8.40
2022-08-20T23:19:53.072Z,9.63
2022-08-20T23:22:21.900Z,10.20
2022-08-20T23:24:50.942Z,8.63
2022-08-20T23:27:22.065Z,7.10
2022-08-20T23:29:50.810Z,9.00
2022-08-20T23:32:19.740Z,8.90
2022-08-20T23:34:50.117Z,8.27
2022-08-20T23:37:19.929Z,8.18
2022-08-20T23:39:50.119Z,8.38
2022-08-20T23:42:19.541Z,8.63
2022-08-20T23:44:48.327Z,8.98
2022-08-20T23:47:21.184Z,8.48
2022-08-20T23:49:51.908Z,8.80
2022-08-20T23:52:20.938Z,9.15
2022-08-20T23:54:49.812Z,8.63
2022-08-20T23:57:21.008Z,9.10
2022-08-20T23:59:52.886Z,8.88
